Saint Vincent, MN (56755)

11:01 AM CDT on July 25, 2016 (GMT -0500)
Hallock Municipal | | Change Station

Elev 820 ft 48.75 °N, 96.94 °W | Updated 7 minutes ago

Clear
Clear
75 °F
Feels Like 75 °F
N
4
Wind Variable Wind from WSW

Today
High -- | Low -- °F
--% Chance of Precip.
Yesterday
High -- | Low -- °F
Precip. -- in
Pressure 29.99 in
Visibility 10.0 miles
Clouds Clear
Dew Point 63 °F
Humidity 65%
Rainfall 0.00 in
Snow Depth Not available.
5:53 AM 9:16 PM
Waning Gibbous, 65% visible
METAR KHCO 251554Z AUTO 24003KT 10SM CLR 24/17 A2999 RMK AO2
Pressure 29.99 in
Visibility 10.0 miles
Clouds Clear
Dew Point 63 °F
Humidity 65%
Rainfall 0.00 in
Snow Depth Not available.
5:53 AM 9:16 PM
Waning Gibbous, 65% visible
METAR KHCO 251554Z AUTO 24003KT 10SM CLR 24/17 A2999 RMK AO2

10-Day Weather Forecast

Almanac

Astronomy

Jul. 25, 2016 Rise Set
Actual Time
Civil Twilight
Nautical Twilight
Astronomical Twilight
Moon
Length of Visible Light
Length of Day
Tomorrow will be .
, % of the Moon is Illuminated

Today's Extremes

State Highs State Lows

Community

WunderPhotos

Upload Photos

1,927,340 photos uploaded!

WunderBlog® & News

Nearby

Air Quality

  Air Quality AQ Index Pollutant
Not available.

Snow Depth

Station Depth Elevation

Earthquake Activity

City Distance Mag. Time & Date
Minimum magnitude displayed is 2.5.

Coastal Water Temperatures

Place Temperature

Stations

Nearby Weather Stations

Station Location Temp. Windchill Dew Point Humidity Wind Precip. Elev Updated Type
                   

Watches & Warnings

There are currently no watches in effect.